Data for 06/25/2014

Time Sea-Level Adjusted Pressure Absolute Pressure Temperature Relative Humidity Dew Point   
(mb) (inHg) (mb) (inHg) (C) (F) (%) (C) (F)
00:05 1018 30.06 847 25.01 12.2 53.9 78 8.6 47.4
00:10 1018 30.06 848 25.04 12 53.7 79 8.6 47.4
00:15 1018 30.06 848 25.04 11.9 53.5 80 8.6 47.4
00:20 1018 30.06 848 25.04 11.8 53.2 81 8.6 47.5
00:25 1018 30.06 848 25.04 11.7 53 81 8.5 47.4
00:30 1018 30.06 848 25.04 11.6 52.8 82 8.6 47.5
00:35 1018 30.06 848 25.04 11.4 52.6 84 8.8 47.8
00:40 1018 30.06 848 25.04 11.3 52.3 83 8.5 47.4
00:45 1018 30.06 848 25.04 11.4 52.5 81 8.3 47
00:50 1018 30.06 848 25.04 11.5 52.8 82 8.6 47.5
00:55 1018 30.06 848 25.04 11.4 52.4 83 8.5 47.3
01:00 1018 30.06 848 25.04 11.4 52.5 83 8.6 47.4
01:05 1018 30.06 848 25.04 11.4 52.6 82 8.6 47.4
01:10 1018 30.06 848 25.04 11.5 52.6 82 8.5 47.4
01:15 1018 30.06 848 25.04 11.5 52.7 82 8.5 47.3
01:20 1018 30.06 848 25.04 11.4 52.6 82 8.4 47.2
01:25 1018 30.06 848 25.04 11.5 52.7 81 8.3 47
01:30 1018 30.06 848 25.04 11.5 52.7 81 8.5 47.3
01:35 1019 30.09 848 25.04 11.4 52.5 82 8.5 47.3
01:40 1018 30.06 848 25.04 11.2 52.1 83 8.5 47.2
01:45 1018 30.06 848 25.04 11 51.8 83 8.3 47
01:50 1018 30.06 848 25.04 10.9 51.6 84 8.4 47.1
01:55 1018 30.06 848 25.04 10.7 51.3 85 8.4 47.1
02:00 1018 30.06 848 25.04 10.6 51 86 8.3 46.9
02:05 1018 30.06 848 25.04 10.5 50.8 86 8.3 46.9
02:10 1018 30.06 848 25.04 10.5 50.9 85 8.1 46.6
02:15 1018 30.06 848 25.04 10.6 51 85 8.1 46.6
02:20 1018 30.06 848 25.04 10.7 51.3 83 8 46.4
02:25 1018 30.06 848 25.04 10.7 51.2 83 8 46.4
02:30 1018 30.06 848 25.04 10.7 51.2 83 8 46.3
02:35 1018 30.06 848 25.04 10.7 51.2 83 7.9 46.2
02:40 1018 30.06 848 25.04 10.6 51.1 84 8 46.4
02:45 1018 30.06 848 25.04 10.4 50.8 85 8 46.5
02:50 1018 30.06 848 25.04 10.3 50.5 86 8 46.4
02:55 1018 30.06 848 25.04 10.1 50.2 86 7.9 46.3
03:00 1018 30.06 848 25.04 10 49.9 87 7.9 46.2
03:05 1018 30.06 847 25.01 9.7 49.5 87 7.8 46
03:10 1018 30.06 848 25.04 9.6 49.2 89 7.8 46
03:15 1018 30.06 848 25.04 9.5 49.1 89 7.7 45.9
03:20 1018 30.06 847 25.01 9.7 49.4 87 7.7 45.9
03:25 1018 30.06 847 25.01 9.8 49.7 87 7.8 46.1
03:30 1018 30.06 847 25.01 10 50 87 7.9 46.2
03:35 1018 30.06 847 25.01 10 50 87 7.9 46.1
03:40 1018 30.06 847 25.01 10 50 86 7.8 46.1
03:45 1018 30.06 847 25.01 10 49.9 87 7.9 46.1
03:50 1018 30.06 847 25.01 9.9 49.9 87 7.9 46.2
03:55 1018 30.06 847 25.01 10 49.9 87 7.9 46.3
04:00 1018 30.06 847 25.01 9.9 49.8 87 7.9 46.2
04:05 1018 30.06 847 25.01 9.8 49.6 88 7.9 46.1
04:10 1018 30.06 847 25.01 9.9 49.8 87 7.8 46
04:15 1018 30.06 847 25.01 9.9 49.8 87 7.9 46.2
04:20 1018 30.06 847 25.01 9.7 49.4 88 7.8 46.1
04:25 1018 30.06 847 25.01 9.6 49.3 89 7.9 46.1
04:30 1018 30.06 847 25.01 9.5 49.1 88 7.7 45.9
04:35 1018 30.06 847 25.01 9.7 49.4 88 7.8 46
04:40 1018 30.06 847 25.01 9.5 49.1 89 7.8 46
04:45 1018 30.06 847 25.01 9.5 49 88 7.6 45.7
04:50 1018 30.06 847 25.01 9.5 49.1 88 7.7 45.8
04:55 1018 30.06 847 25.01 9.5 49.1 88 7.7 45.9
05:00 1018 30.06 847 25.01 9.5 49.1 89 7.7 45.9
05:05 1018 30.06 847 25.01 9.5 49 89 7.7 45.9
05:10 1018 30.06 847 25.01 9.5 49.1 89 7.7 45.9
05:15 1018 30.06 847 25.01 9.6 49.2 88 7.8 46
05:20 1018 30.06 847 25.01 9.6 49.2 88 7.8 46
05:25 1018 30.06 848 25.04 9.6 49.3 89 7.8 46.1
05:30 1018 30.06 848 25.04 9.7 49.5 88 7.9 46.1
05:35 1018 30.06 848 25.04 9.9 49.8 88 7.9 46.3
05:40 1018 30.06 848 25.04 9.9 49.8 88 8 46.3
05:45 1018 30.06 848 25.04 10 50 87 7.9 46.3
05:50 1018 30.06 848 25.04 10 50.1 87 8 46.3
05:55 1018 30.06 848 25.04 10.2 50.3 87 8.1 46.5
06:00 1018 30.06 847 25.01 10.2 50.4 87 8.2 46.8
06:05 1018 30.06 847 25.01 10.3 50.5 87 8.2 46.8
06:10 1018 30.06 847 25.01 10.4 50.7 87 8.3 47
06:15 1018 30.06 847 25.01 10.5 50.9 87 8.4 47.1
06:20 1018 30.06 847 25.01 10.6 51.1 87 8.5 47.3
06:25 1018 30.06 847 25.01 10.7 51.2 87 8.5 47.4
06:30 1018 30.06 847 25.01 10.8 51.4 86 8.5 47.3
06:35 1018 30.06 847 25.01 10.9 51.6 86 8.7 47.7
06:40 1018 30.06 847 25.01 11 51.9 85 8.7 47.6
06:45 1018 30.06 847 25.01 11.1 52 85 8.6 47.6
06:50 1018 30.06 847 25.01 11.2 52.2 84 8.7 47.6
06:55 1018 30.06 848 25.04 11.3 52.3 84 8.8 47.8
07:00 1018 30.06 847 25.01 11.4 52.5 85 8.9 48.1
07:05 1018 30.06 848 25.04 11.3 52.4 86 9.1 48.3
07:10 1018 30.06 848 25.04 11.4 52.4 86 9.2 48.5
07:15 1018 30.06 847 25.01 11.4 52.5 86 9.2 48.5
07:20 1018 30.06 848 25.04 11.5 52.7 87 9.4 48.9
07:25 1018 30.06 848 25.04 11.6 52.8 86 9.4 48.9
07:30 1018 30.06 848 25.04 11.8 53.2 86 9.6 49.2
07:35 1018 30.06 848 25.04 12.1 53.7 85 9.6 49.2
07:40 1018 30.06 847 25.01 12.3 54.2 82 9.4 49
07:45 1018 30.06 847 25.01 12.6 54.7 83 9.9 49.8
07:50 1018 30.06 847 25.01 12.9 55.1 82 9.9 49.7
07:55 1018 30.06 847 25.01 13.1 55.5 83 10.2 50.4
08:00 1018 30.06 848 25.04 13.9 57 78 10.2 50.4
08:05 1018 30.06 847 25.01 14.1 57.4 78 10.4 50.7
08:10 1018 30.06 847 25.01 14.7 58.5 76 10.5 50.8
08:15 1018 30.06 847 25.01 14.5 58.1 75 10.2 50.4
08:20 1018 30.06 847 25.01 14.9 58.8 75 10.6 51
08:25 1018 30.06 848 25.04 14.9 58.8 75 10.6 51
08:30 1018 30.06 848 25.04 15.1 59.1 73 10.2 50.4
08:35 1018 30.06 848 25.04 15.3 59.5 73 10.5 50.9
08:40 1019 30.09 848 25.04 15.3 59.5 73 10.6 51.1
08:45 1018 30.06 848 25.04 15.5 59.9 70 10.1 50.2
08:50 1019 30.09 848 25.04 15.6 60 71 10.5 50.8
08:55 1019 30.09 848 25.04 15.7 60.3 68 9.9 49.8
09:00 1019 30.09 848 25.04 15.8 60.5 68 9.9 49.9
09:05 1018 30.06 848 25.04 16.4 61.6 65 9.8 49.6
09:10 1018 30.06 848 25.04 16.1 60.9 63 9 48.3
09:15 1018 30.06 848 25.04 15.6 60.1 66 9.5 49.1
09:20 1018 30.06 848 25.04 15.9 60.7 63 9 48.2
09:25 1018 30.06 848 25.04 16.3 61.3 65 9.7 49.5
09:30 1018 30.06 848 25.04 16.1 60.9 65 9.5 49.2
09:35 1018 30.06 847 25.01 16.9 62.4 60 9.2 48.6
09:40 1018 30.06 847 25.01 17.8 64.1 58 9.6 49.3
09:45 1018 30.06 847 25.01 18.1 64.6 58 9.8 49.6
09:50 1018 30.06 847 25.01 17.7 63.8 58 9.4 48.9
09:55 1018 30.06 847 25.01 17.9 64.2 58 9.6 49.3
10:00 1018 30.06 847 25.01 17.6 63.7 57 9.1 48.3
10:05 1018 30.06 847 25.01 17.7 63.9 57 9.3 48.7
10:10 1018 30.06 847 25.01 18.7 65.6 56 9.8 49.6
10:15 1018 30.06 847 25.01 18.6 65.5 56 9.7 49.5
10:20 1018 30.06 847 25.01 17.9 64.2 57 9.5 49
10:25 1018 30.06 847 25.01 17.6 63.6 58 9.4 49
10:30 1018 30.06 847 25.01 17.9 64.2 57 9.3 48.8
10:35 1018 30.06 847 25.01 17.8 64.1 59 9.8 49.7
10:40 1018 30.06 847 25.01 18.3 65 58 10 50
10:45 1018 30.06 847 25.01 18.3 64.9 57 9.8 49.7
10:50 1018 30.06 847 25.01 17.9 64.3 57 9.4 49
10:55 1018 30.06 847 25.01 18.5 65.2 57 10 50
11:00 1018 30.06 847 25.01 18.5 65.4 55 9.5 49.1
11:05 1018 30.06 847 25.01 19 66.2 54 9.5 49.1
11:10 1018 30.06 847 25.01 19.8 67.6 52 9.8 49.6
11:15 1018 30.06 847 25.01 20 67.9 50 9.5 49
11:20 1018 30.06 847 25.01 19.5 67 52 9.3 48.8
11:25 1018 30.06 847 25.01 19.7 67.4 50 9.2 48.5
11:30 1018 30.06 847 25.01 20.2 68.4 49 9.2 48.5
11:35 1018 30.06 847 25.01 20.6 69.1 48 9.3 48.8
11:40 1018 30.06 847 25.01 20.4 68.7 48 9 48.3
11:45 1017 30.03 847 25.01 20.6 69 49 9.6 49.3
11:50 1017 30.03 847 25.01 20.6 69.1 48 9.2 48.6
11:55 1017 30.03 847 25.01 20.4 68.7 47 8.8 47.9
12:00 1017 30.03 847 25.01 20.5 68.8 47 9 48.2
12:05 1017 30.03 846 24.98 21.4 70.4 44 8.9 48
12:10 1017 30.03 846 24.98 21.8 71.3 42 8.4 47.2
12:15 1017 30.03 846 24.98 22.6 72.7 39 8.2 46.8
12:20 1017 30.03 846 24.98 22.2 72 42 8.7 47.7
12:25 1017 30.03 846 24.98 22.2 72 40 8.1 46.5
12:30 1017 30.03 846 24.98 21.7 71.1 41 8 46.5
12:35 1017 30.03 846 24.98 21.4 70.5 41 7.6 45.7
12:40 1017 30.03 846 24.98 21 69.8 41 7.4 45.3
12:45 1017 30.03 846 24.98 21.8 71.2 41 8 46.3
12:50 1017 30.03 846 24.98 22.1 71.8 41 8.3 46.9
12:55 1017 30.03 846 24.98 22.5 72.5 36 6.8 44.2
13:00 1017 30.03 846 24.98 21.9 71.4 39 7.3 45.2
13:05 1017 30.03 846 24.98 21.7 71.1 41 8.1 46.5
13:10 1017 30.03 846 24.98 22.7 72.8 37 7.3 45.1
13:15 1017 30.03 846 24.98 23.3 74 35 7.3 45.1
13:20 1016 30 846 24.98 23.8 74.9 36 7.9 46.2
13:25 1016 30 846 24.98 23.6 74.4 34 7.1 44.8
13:30 1016 30 845 24.95 23.4 74.1 34 6.8 44.2
13:35 1016 30 845 24.95 23.7 74.7 34 6.9 44.5
13:40 1016 30 845 24.95 22.3 72.2 37 7.3 45.1
13:45 1016 30 845 24.95 21.6 70.9 37 6.7 44
13:50 1016 30 845 24.95 21.7 71 39 7.2 45
13:55 1016 30 845 24.95 22.4 72.4 36 7 44.6
14:00 1016 30 845 24.95 23.2 73.7 37 7.7 45.8
14:05 1016 30 845 24.95 22.8 73 37 7.6 45.7
14:10 1016 30 845 24.95 21.8 71.2 39 7.3 45.1
14:15 1016 30 845 24.95 21.9 71.4 39 7.4 45.3
14:20 1016 30 845 24.95 23 73.3 34 6.6 43.9
14:25 1016 30 845 24.95 23.7 74.7 35 7.7 45.9
14:30 1016 30 845 24.95 23.5 74.2 35 7.2 45
14:35 1016 30 845 24.95 23.7 74.7 34 7.2 45
14:40 1016 30 845 24.95 23.2 73.7 35 7.2 44.9
14:45 1016 30 845 24.95 23 73.4 36 7.3 45.1
14:50 1016 30 845 24.95 23 73.4 36 7.4 45.3
14:55 1016 30 845 24.95 23 73.4 36 7.2 44.9
15:00 1016 30 845 24.95 23.3 74 34 6.8 44.3
15:05 1016 30 845 24.95 23.3 73.9 37 8 46.3
15:10 1016 30 845 24.95 23 73.5 37 7.9 46.2
15:15 1016 30 845 24.95 23.3 74 37 8.1 46.6
15:20 1016 30 845 24.95 23.3 73.9 38 8.4 47.2
15:25 1016 30 845 24.95 23.2 73.8 38 8.3 46.9
15:30 1016 30 845 24.95 23.2 73.7 38 8.2 46.8
15:35 1016 30 845 24.95 22.9 73.3 38 8.2 46.8
15:40 1015 29.97 845 24.95 22.7 72.8 40 8.5 47.3
15:45 1015 29.97 845 24.95 22.5 72.5 40 8.6 47.4
15:50 1016 30 845 24.95 21.6 71 45 9.3 48.7
15:55 1016 30 845 24.95 20.6 69.1 53 10.9 51.6
16:00 1016 30 845 24.95 20.2 68.3 51 9.9 49.9
16:05 1016 30 845 24.95 20.1 68.2 51 9.9 49.8
16:10 1016 30 845 24.95 20 68.1 53 10.2 50.4
16:15 1016 30 845 24.95 19.9 67.7 46 8 46.5
16:20 1016 30 845 24.95 19.1 66.3 46 7.4 45.2
16:25 1016 30 845 24.95 18.6 65.4 48 7.4 45.3
16:30 1016 30 845 24.95 18.1 64.6 50 7.7 45.9
16:35 1016 30 845 24.95 18 64.4 46 6.3 43.3
16:40 1016 30 845 24.95 18.2 64.8 48 7.2 45
16:45 1016 30 845 24.95 18.2 64.7 52 8.1 46.6
16:50 1016 30 845 24.95 17.9 64.1 53 8.2 46.8
16:55 1016 30 845 24.95 18 64.4 55 9 48.3
17:00 1016 30 845 24.95 17.9 64.3 56 9.2 48.6
17:05 1016 30 845 24.95 17.5 63.6 59 9.4 49
17:10 1016 30 845 24.95 17.3 63.1 59 9.3 48.8
17:15 1016 30 845 24.95 17.5 63.4 58 9.1 48.4
17:20 1015 29.97 845 24.95 17.4 63.3 57 9 48.1
17:25 1015 29.97 845 24.95 17.3 63.2 56 8.7 47.6
17:30 1015 29.97 845 24.95 17.2 63 57 8.7 47.7
17:35 1015 29.97 845 24.95 17.3 63.2 57 8.7 47.7
17:40 1015 29.97 845 24.95 17.5 63.5 57 9.1 48.4
17:45 1015 29.97 845 24.95 17.5 63.5 59 9.4 48.9
17:50 1015 29.97 845 24.95 17.5 63.5 56 8.8 47.9
17:55 1015 29.97 845 24.95 17.7 63.8 56 8.8 47.9
18:00 1015 29.97 845 24.95 17.8 64.1 55 8.7 47.6
18:05 1015 29.97 845 24.95 17.9 64.2 56 9 48.2
18:10 1016 30 845 24.95 17.9 64.2 55 9 48.1
18:15 1016 30 845 24.95 17.8 64.1 58 9.5 49.1
18:20 1016 30 845 24.95 17.7 63.8 57 9 48.3
18:25 1016 30 845 24.95 17.7 63.9 55 8.6 47.5
18:30 1016 30 845 24.95 17.8 64.1 55 8.7 47.7
18:35 1016 30 845 24.95 17.8 64 63 10.7 51.3
18:40 1016 30 845 24.95 16.8 62.3 69 11.3 52.3
18:45 1016 30 845 24.95 16.2 61.2 72 11.3 52.3
18:50 1016 30 845 24.95 15.9 60.7 72 10.9 51.6
18:55 1016 30 845 24.95 15.9 60.5 70 10.5 50.9
19:00 1016 30 845 24.95 15.9 60.7 68 10.2 50.3
19:05 1016 30 845 24.95 16 60.8 69 10.4 50.7
19:10 1016 30 845 24.95 16.2 61.2 68 10.4 50.8
19:15 1016 30 845 24.95 16.3 61.3 68 10.5 50.9
19:20 1016 30 845 24.95 16.4 61.5 66 10.2 50.4
19:25 1016 30 845 24.95 16.6 61.8 66 10.3 50.5
19:30 1016 30 845 24.95 16.5 61.7 70 11.2 52.1
19:35 1016 30 846 24.98 16 60.7 74 11.4 52.6
19:40 1016 30 846 24.98 15.7 60.3 75 11.4 52.6
19:45 1016 30 846 24.98 15.6 60.1 76 11.3 52.4
19:50 1016 30 846 24.98 15.6 60 75 11.2 52.1
19:55 1016 30 846 24.98 15.5 59.9 74 11 51.8
20:00 1017 30.03 846 24.98 15.5 59.8 75 11.1 51.9
20:05 1017 30.03 846 24.98 15.3 59.5 76 11 51.8
20:10 1017 30.03 846 24.98 15.2 59.4 77 11.2 52.1
20:15 1017 30.03 846 24.98 15.4 59.6 75 10.9 51.7
20:20 1016 30 846 24.98 15.2 59.4 75 11 51.7
20:25 1016 30 846 24.98 15.2 59.4 76 11 51.8
20:30 1016 30 846 24.98 15.1 59.1 77 11.1 52
20:35 1016 30 845 24.95 15 58.9 78 11.1 52
20:40 1016 30 845 24.95 14.9 58.8 78 11 51.9
20:45 1016 30 845 24.95 14.9 58.7 77 10.9 51.6
20:50 1016 30 845 24.95 14.9 58.8 78 11 51.8
20:55 1016 30 845 24.95 14.9 58.8 77 10.9 51.6
21:00 1016 30 846 24.98 15 59 76 10.8 51.4
21:05 1016 30 846 24.98 15.2 59.3 74 10.6 51
21:10 1016 30 846 24.98 15.2 59.4 75 10.9 51.6
21:15 1016 30 846 24.98 15.2 59.3 75 10.8 51.4
21:20 1016 30 846 24.98 15.1 59.3 76 11 51.8
21:25 1016 30 846 24.98 15 59 77 10.9 51.7
21:30 1016 30 845 24.95 15 59 77 11 51.7
21:35 1016 30 846 24.98 15 59 77 11 51.8
21:40 1016 30 846 24.98 14.9 58.9 77 11 51.9
21:45 1016 30 845 24.95 14.9 58.8 77 10.9 51.7
21:50 1016 30 845 24.95 14.9 58.8 78 11.1 51.9
21:55 1016 30 845 24.95 14.8 58.6 78 11 51.9
22:00 1016 30 845 24.95 14.7 58.5 79 11.2 52.1
22:05 1016 30 845 24.95 14.6 58.2 80 11.1 52.1
22:10 1016 30 845 24.95 14.4 58 81 11.2 52.2
22:15 1016 30 845 24.95 14.2 57.5 81 11 51.9
22:20 1016 30 845 24.95 14 57.2 82 10.9 51.7
22:25 1016 30 845 24.95 13.9 57 81 10.8 51.4
22:30 1016 30 845 24.95 13.9 56.9 80 10.5 50.9
22:35 1016 30 845 24.95 13.9 57.1 79 10.5 50.8
22:40 1015 29.97 845 24.95 13.9 57 79 10.4 50.7
22:45 1015 29.97 844 24.92 13.9 57 78 10.1 50.2
22:50 1015 29.97 844 24.92 13.8 56.9 78 10 50.1
22:55 1015 29.97 844 24.92 13.7 56.6 79 10.1 50.1
23:00 1015 29.97 844 24.92 13.6 56.5 78 9.8 49.7
23:05 1015 29.97 844 24.92 13.7 56.6 76 9.6 49.4
23:10 1015 29.97 844 24.92 13.7 56.6 77 9.8 49.6
23:15 1015 29.97 844 24.92 13.4 56.2 80 10 50
23:20 1015 29.97 844 24.92 13.3 55.9 81 10.1 50.1
23:25 1014 29.94 844 24.92 13.2 55.7 81 10 50
23:30 1014 29.94 844 24.92 13.2 55.7 80 9.9 49.8
23:35 1014 29.94 844 24.92 13.1 55.6 80 9.8 49.6
23:40 1014 29.94 844 24.92 13.2 55.7 80 9.8 49.6
23:45 1014 29.94 843 24.89 13.2 55.7 79 9.7 49.4
23:50 1014 29.94 844 24.92 13.1 55.6 79 9.5 49.1
23:55 1014 29.94 844 24.92 13.1 55.6 78 9.4 48.9
24:00 1014 29.94 843 24.89 13.1 55.6 77 9.1 48.5